Terminal Aerodrome Forecast
Issued by NWS Springfield, MO

Home | Current Version | Previous Version | Text Only | Print | Product List | Glossary On
Versions: 1 2 3 4 5 6 7 8 9 10 11 12 13 14 15 16 17 18 19
000
FTUS43 KSGF 301850 AAA
TAFSGF
TAF AMD
KSGF 301850Z 3019/0118 23013KT P6SM SCT027 BKN035 OVC045
     FM302100 24012KT P6SM SCT060
     FM010000 26008KT P6SM FEW200
     FM011700 29011KT P6SM SCT150=

USA.gov is the U.S. government's official web portal to all federal, state and local government web resources and services.